• Join FlightAware (Why Join?)
  • Login
  • US Flag 
10:24PM EST


 

Airport Tracker/Info


-or-


 

Live Flight TrackerFlight Track Log ✈ ASH3795 ✈ 21-Jun-2013 ✈ KIAD - KCLT

Flight Track Log - Related Links

Times and Time Zones

All times are in EDT time to prevent confusion due to time zone crossing. See the ASH3795 flight status page for this flight to view local times or setup timezone preferences in your user account.

Time Position Orientation Groundspeed Altitude Reporting Facility
EDT Latitude Longitude Course Direction KTS MPH feet Rate Location/Type
08:32AM 38.9000 -77.4333 270° West 188 216 3,300  Level Potomac TRACON
08:33AM 38.8333 -77.4333 180° South 212 244 5,300 2,220 Climbing Potomac TRACON
08:34AM 38.7667 -77.4667 201° Southwest 282 325 7,600 2,640 Climbing Potomac TRACON
08:35AM 38.6833 -77.4833 189° South 301 346 10,700 2,820 Climbing Potomac TRACON
08:36AM 38.6000 -77.5167 197° South 303 349 13,400 2,280 Climbing Potomac TRACON
08:37AM 38.3833 -77.5794 270° West  Level FlightAware Approximate
08:37AM 38.5683 -77.5406 211° Southwest 306 352 14,500  Level Washington Center
08:38AM 38.5022 -77.6158 222° Southwest 307 353 17,000 2,040 Climbing Washington Center
08:39AM 38.4344 -77.6908 221° Southwest 318 366 18,600 1,860 Climbing Washington Center
08:40AM 38.3661 -77.7683 222° Southwest 325 374 20,700 4,680 Climbing Washington Center
08:41AM 38.2875 -77.8508 219° Southwest 335 386 28,000 1,800 Climbing Washington Center
08:42AM 38.2192 -77.9306 223° Southwest 348 400 24,300 -960 Descending Washington Center
08:43AM 38.1425 -78.0153 221° Southwest 359 413 26,100 1,200 Climbing Washington Center
08:44AM 38.0636 -78.1053 222° Southwest 373 429 26,800 480 Climbing Washington Center
08:45AM 37.9822 -78.2053 224° Southwest 388 447 27,100 540 Climbing Washington Center
08:46AM 37.9025 -78.3183 228° Southwest 414 476 28,000 420 Climbing Washington Center
08:47AM 37.8206 -78.4361 229° Southwest 436 502 28,000  Level Washington Center
08:48AM 37.7297 -78.5694 229° Southwest 460 529 28,000  Level Washington Center
08:49AM 37.6497 -78.6817 228° Southwest 450 518 28,000  Level Washington Center
08:50AM 37.5672 -78.7989 228° Southwest 450 518 28,000  Level Washington Center
08:51AM 37.4869 -78.9106 228° Southwest 450 518 28,000  Level Washington Center
08:52AM 37.4133 -79.0119 228° Southwest 450 518 28,000  Level Washington Center
08:53AM 37.3328 -79.1286 229° Southwest 450 518 28,000  Level Washington Center
08:54AM 37.2481 -79.2394 226° Southwest 450 518 28,000  Level Washington Center
08:55AM 37.1494 -79.3233 214° Southwest 440 506 28,000  Level Washington Center
08:56AM 37.0489 -79.4069 214° Southwest 440 506 28,000  Level Washington Center
08:57AM 36.9394 -79.4950 213° Southwest 440 506 28,000  Level Washington Center
08:58AM 36.8386 -79.5808 214° Southwest 440 506 28,000  Level Washington Center
08:59AM 36.7400 -79.6614 213° Southwest 435 501 28,000 -540 Level Washington Center
09:00AM 36.6347 -79.7464 213° Southwest 435 501 26,900 -1,380 Descending Washington Center
09:01AM 36.5422 -79.8242 214° Southwest 447 514 25,300 -2,040 Descending Washington Center
09:02AM 36.4147 -79.9211 211° Southwest 452 520 22,900 -1,620 Descending Atlanta Center
09:03AM 36.3092 -80.0067 213° Southwest 446 513 22,000 -660 Descending Atlanta Center
09:04AM 36.2117 -80.0911 215° Southwest 446 513 21,600 -1,380 Descending Atlanta Center
09:05AM 36.1164 -80.1731 215° Southwest 446 513 19,300 -2,220 Descending Atlanta Center
09:06AM 36.0369 -80.2408 215° Southwest 417 480 17,200 -2,220 Descending Atlanta Center
09:07AM 35.9497 -80.3169 215° Southwest 398 458 14,900 -2,460 Descending Atlanta Center
09:07AM 35.8928 -80.3681 216° Southwest 353 406 13,200 -1,260 Descending Atlanta Center
09:08AM 35.8197 -80.4328 216° Southwest 311 358 12,800 -1,080 Descending Atlanta Center
09:09AM 35.7403 -80.4978 214° Southwest 311 358 11,100 -1,320 Descending Atlanta Center
09:10AM 35.6708 -80.5569 215° Southwest 304 350 10,200 -600 Descending Atlanta Center
09:11AM 35.6017 -80.6111 212° Southwest 299 344 10,000 -120 Descending Atlanta Center
09:12AM 35.5219 -80.6783 214° Southwest 301 346 10,000  Level Atlanta Center
09:14AM 35.4486 -80.7372 213° Southwest 306 352 10,000 -120 Level Atlanta Center
09:15AM 35.3772 -80.7989 215° Southwest 302 348 9,800 -540 Descending Atlanta Center
09:16AM 35.3097 -80.8575 215° Southwest 301 346 9,000 -420 Descending Atlanta Center
09:17AM 35.2328 -80.8656 185° South 237 273 9,000  Level Atlanta Center
09:17AM 35.1844 -80.8519 167° South 239 275 9,000 -720 Level Atlanta Center
09:18AM 35.1153 -80.8344 168° South 251 289 7,800 -1,440 Descending Atlanta Center
09:19AM 35.0483 -80.8319 178° South 240 276 6,100 -1,800 Descending Atlanta Center
09:20AM 34.9972 -80.8669 209° Southwest 214 246 4,200 -1,320 Descending Atlanta Center
09:22AM 35.0131 -80.9194 290° West 180 207 3,500 -600 Descending Atlanta Center
09:23AM 35.0611 -80.9253 354° North 146 168 3,000 -480 Descending Atlanta Center